createdAt,value
2023-02-07T00:00:08.658Z,192.35
2023-02-07T00:02:35.084Z,198.55
2023-02-07T00:05:01.485Z,238.70
2023-02-07T00:07:27.904Z,194.40
2023-02-07T00:09:54.405Z,250.68
2023-02-07T00:12:20.951Z,210.02
2023-02-07T00:14:47.537Z,158.32
2023-02-07T00:17:13.951Z,169.40
2023-02-07T00:19:40.434Z,142.15
2023-02-07T00:22:06.881Z,191.93
2023-02-07T00:24:33.387Z,153.23
2023-02-07T00:26:59.795Z,285.33
2023-02-07T00:29:26.240Z,148.27
2023-02-07T00:31:52.626Z,163.10
2023-02-07T00:34:19.011Z,196.38
2023-02-07T00:36:48.581Z,165.98
2023-02-07T00:39:15.700Z,133.40
2023-02-07T00:41:42.523Z,161.35
2023-02-07T00:44:09.342Z,110.65
2023-02-07T00:46:36.117Z,96.13
2023-02-07T00:49:02.942Z,90.85
2023-02-07T00:51:29.388Z,94.97
2023-02-07T00:53:57.905Z,90.32
2023-02-07T00:56:26.164Z,95.43
2023-02-07T00:58:52.817Z,67.53
2023-02-07T01:01:20.173Z,55.63
2023-02-07T01:03:46.941Z,65.53
2023-02-07T01:06:13.362Z,56.70
2023-02-07T01:08:39.985Z,42.90
2023-02-07T01:11:08.629Z,45.95
2023-02-07T01:13:35.434Z,56.88
2023-02-07T01:16:02.316Z,53.40
2023-02-07T01:18:28.817Z,53.33
2023-02-07T01:20:55.357Z,45.80
2023-02-07T01:23:21.951Z,47.78
2023-02-07T01:25:48.477Z,48.50
2023-02-07T01:28:15.378Z,45.45
2023-02-07T01:30:43.065Z,43.80
2023-02-07T01:33:09.920Z,58.00
2023-02-07T01:35:37.570Z,45.75
2023-02-07T01:38:04.243Z,45.08
2023-02-07T01:40:30.888Z,49.17
2023-02-07T01:42:57.769Z,47.75
2023-02-07T01:45:40.393Z,49.35
2023-02-07T01:48:15.013Z,50.25
2023-02-07T01:50:42.408Z,41.75
2023-02-07T01:53:09.543Z,35.20
2023-02-07T01:55:38.394Z,41.65
2023-02-07T01:58:05.960Z,38.33
2023-02-07T02:00:32.558Z,42.70
2023-02-07T02:02:59.377Z,37.80
2023-02-07T02:05:25.978Z,37.47
2023-02-07T02:07:52.431Z,41.53
2023-02-07T02:10:20.288Z,47.50
2023-02-07T02:13:05.539Z,43.22
2023-02-07T02:15:36.577Z,30.95
2023-02-07T02:18:15.313Z,25.75
2023-02-07T02:20:50.879Z,45.35
2023-02-07T02:23:30.317Z,32.38
2023-02-07T02:25:57.735Z,42.08
2023-02-07T02:28:24.169Z,37.22
2023-02-07T02:30:53.713Z,28.70
2023-02-07T02:33:23.442Z,36.55
2023-02-07T02:35:57.838Z,29.52
2023-02-07T02:38:27.346Z,39.05
2023-02-07T02:41:02.994Z,32.20
2023-02-07T02:43:35.845Z,29.80
2023-02-07T02:46:06.780Z,36.17
2023-02-07T02:48:36.188Z,32.83
2023-02-07T02:51:03.905Z,29.65
2023-02-07T02:53:30.608Z,27.33
2023-02-07T02:56:03.059Z,27.13
2023-02-07T02:58:41.579Z,37.47
2023-02-07T03:01:29.952Z,29.58
2023-02-07T03:04:02.396Z,30.25
2023-02-07T03:06:44.653Z,38.35
2023-02-07T03:09:16.799Z,28.58
2023-02-07T03:11:54.891Z,33.15
2023-02-07T03:14:24.289Z,23.92
2023-02-07T03:17:01.108Z,33.50
2023-02-07T03:19:30.357Z,32.17
2023-02-07T03:22:02.023Z,30.60
2023-02-07T03:24:28.413Z,28.40
2023-02-07T03:26:57.125Z,25.25
2023-02-07T03:29:24.282Z,31.75
2023-02-07T03:31:52.138Z,35.22
2023-02-07T03:34:24.081Z,33.50
2023-02-07T03:36:56.608Z,36.47
2023-02-07T03:39:23.247Z,24.88
2023-02-07T03:41:55.154Z,23.52
2023-02-07T03:44:25.380Z,29.48
2023-02-07T03:46:52.302Z,30.42
2023-02-07T03:49:18.760Z,32.42
2023-02-07T03:51:45.328Z,22.60
2023-02-07T03:54:12.140Z,29.63
2023-02-07T03:56:38.826Z,24.73
2023-02-07T03:59:05.665Z,30.20
2023-02-07T04:01:32.139Z,25.00
2023-02-07T04:03:58.627Z,28.50
2023-02-07T04:06:25.057Z,24.50
2023-02-07T04:08:51.472Z,34.15
2023-02-07T04:11:17.898Z,20.10
2023-02-07T04:13:44.392Z,29.95
2023-02-07T04:16:10.881Z,32.90
2023-02-07T04:18:37.356Z,35.15
2023-02-07T04:21:05.094Z,26.65
2023-02-07T04:23:31.819Z,32.70
2023-02-07T04:26:01.437Z,32.83
2023-02-07T04:28:28.390Z,33.08
2023-02-07T04:30:55.154Z,31.30
2023-02-07T04:33:21.907Z,25.25
2023-02-07T04:35:55.613Z,33.65
2023-02-07T04:38:22.271Z,26.23
2023-02-07T04:40:48.696Z,42.05
2023-02-07T04:43:15.171Z,32.20
2023-02-07T04:45:41.685Z,34.03
2023-02-07T04:48:08.099Z,28.20
2023-02-07T04:50:34.587Z,28.20
2023-02-07T04:53:01.152Z,27.30
2023-02-07T04:55:27.549Z,42.25
2023-02-07T04:57:53.963Z,30.63
2023-02-07T05:00:23.412Z,42.38
2023-02-07T05:02:49.913Z,29.08
2023-02-07T05:05:16.362Z,36.78
2023-02-07T05:07:42.762Z,31.50
2023-02-07T05:10:09.302Z,40.47
2023-02-07T05:12:35.860Z,28.55
2023-02-07T05:15:02.342Z,42.15
2023-02-07T05:17:28.869Z,35.70
2023-02-07T05:19:55.299Z,33.45
2023-02-07T05:22:21.747Z,37.70
2023-02-07T05:24:48.173Z,42.10
2023-02-07T05:27:14.641Z,43.58
2023-02-07T05:29:41.023Z,41.83
2023-02-07T05:32:42.898Z,44.60
2023-02-07T05:35:09.583Z,41.63
2023-02-07T05:37:36.025Z,25.92
2023-02-07T05:40:02.400Z,41.20
2023-02-07T05:42:28.899Z,45.10
2023-02-07T05:44:55.712Z,32.47
2023-02-07T05:47:22.223Z,42.45
2023-02-07T05:49:48.676Z,34.33
2023-02-07T05:52:15.104Z,34.22
2023-02-07T05:54:41.630Z,33.33
2023-02-07T05:57:08.120Z,32.15
2023-02-07T05:59:34.512Z,25.08
2023-02-07T06:02:00.919Z,28.38
2023-02-07T06:04:27.396Z,31.30
2023-02-07T06:06:53.860Z,38.63
2023-02-07T06:09:21.752Z,32.40
2023-02-07T06:11:48.223Z,35.78
2023-02-07T06:14:15.870Z,30.33
2023-02-07T06:16:42.393Z,31.67
2023-02-07T06:19:10.224Z,32.53
2023-02-07T06:21:46.093Z,31.70
2023-02-07T06:24:13.513Z,30.60
2023-02-07T06:26:39.963Z,32.15
2023-02-07T06:29:08.747Z,39.47
2023-02-07T06:31:35.290Z,35.88
2023-02-07T06:34:01.730Z,34.63
2023-02-07T06:36:28.132Z,36.88
2023-02-07T06:38:55.594Z,39.20
2023-02-07T06:41:22.739Z,28.63
2023-02-07T06:43:49.185Z,36.95
2023-02-07T06:46:15.830Z,30.33
2023-02-07T06:48:42.346Z,35.63
2023-02-07T06:51:08.823Z,33.13
2023-02-07T06:53:35.354Z,36.63
2023-02-07T06:56:01.741Z,35.45
2023-02-07T06:58:28.177Z,30.92
2023-02-07T07:00:54.915Z,26.08
2023-02-07T07:03:27.077Z,33.00
2023-02-07T07:05:53.587Z,45.92
2023-02-07T07:08:20.064Z,41.83
2023-02-07T07:10:46.563Z,32.92
2023-02-07T07:13:13.019Z,34.03
2023-02-07T07:15:39.663Z,31.90
2023-02-07T07:18:06.310Z,39.80
2023-02-07T07:20:32.707Z,26.05
2023-02-07T07:22:59.097Z,31.60
2023-02-07T07:25:25.520Z,37.63
2023-02-07T07:27:55.129Z,31.58
2023-02-07T07:30:21.677Z,31.80
2023-02-07T07:32:48.129Z,27.77
2023-02-07T07:35:14.554Z,35.30
2023-02-07T07:37:41.851Z,25.40
2023-02-07T07:40:08.577Z,28.15
2023-02-07T07:42:36.680Z,33.20
2023-02-07T07:45:03.426Z,21.63
2023-02-07T07:47:29.946Z,19.75
2023-02-07T07:49:56.506Z,19.15
2023-02-07T07:52:22.944Z,15.32
2023-02-07T07:54:49.371Z,19.60
2023-02-07T07:57:15.767Z,32.67
2023-02-07T07:59:42.140Z,21.17
2023-02-07T08:02:10.270Z,23.50
2023-02-07T08:04:36.696Z,19.77
2023-02-07T08:07:04.240Z,22.67
2023-02-07T08:09:30.812Z,26.63
2023-02-07T08:11:57.256Z,22.48
2023-02-07T08:14:23.691Z,22.10
2023-02-07T08:16:50.162Z,14.68
2023-02-07T08:19:16.556Z,28.85
2023-02-07T08:21:44.732Z,17.92
2023-02-07T08:24:11.314Z,13.82
2023-02-07T08:26:37.741Z,17.85
2023-02-07T08:29:04.199Z,16.23
2023-02-07T08:31:30.712Z,18.92
2023-02-07T08:33:57.230Z,14.88
2023-02-07T08:36:23.662Z,14.82
2023-02-07T08:38:50.575Z,18.95
2023-02-07T08:41:17.213Z,15.75
2023-02-07T08:43:43.718Z,13.65
2023-02-07T08:46:12.303Z,14.45
2023-02-07T08:48:38.915Z,21.70
2023-02-07T08:51:08.729Z,23.45
2023-02-07T08:53:35.174Z,17.85
2023-02-07T08:56:01.616Z,13.35
2023-02-07T08:58:28.139Z,17.13
2023-02-07T09:00:54.669Z,13.93
2023-02-07T09:03:21.160Z,39.40
2023-02-07T09:05:47.536Z,18.38
2023-02-07T09:08:14.025Z,15.13
2023-02-07T09:10:40.869Z,16.50
2023-02-07T09:13:07.774Z,16.17
2023-02-07T09:15:34.179Z,25.77
2023-02-07T09:18:00.600Z,21.73
2023-02-07T09:20:27.557Z,25.70
2023-02-07T09:23:12.650Z,19.80
2023-02-07T09:25:40.820Z,18.20
2023-02-07T09:28:10.228Z,24.85
2023-02-07T09:30:36.759Z,28.00
2023-02-07T09:33:03.236Z,34.20
2023-02-07T09:35:29.634Z,19.10
2023-02-07T09:37:56.269Z,27.67
2023-02-07T09:40:22.983Z,21.95
2023-02-07T09:42:49.349Z,21.92
2023-02-07T09:45:22.388Z,22.95
2023-02-07T09:47:50.961Z,24.10
2023-02-07T09:50:22.195Z,27.63
2023-02-07T09:52:51.620Z,23.08
2023-02-07T09:55:23.801Z,33.83
2023-02-07T09:57:58.862Z,28.65
2023-02-07T10:00:25.292Z,25.20
2023-02-07T10:02:57.771Z,27.30
2023-02-07T10:05:29.438Z,25.58
2023-02-07T10:07:55.959Z,25.17
2023-02-07T10:10:46.147Z,22.02
2023-02-07T10:13:21.840Z,39.47
2023-02-07T10:15:57.282Z,27.55
2023-02-07T10:18:33.861Z,43.97
2023-02-07T10:21:04.969Z,29.02
2023-02-07T10:23:34.524Z,29.23
2023-02-07T10:26:04.098Z,28.08
2023-02-07T10:28:39.776Z,31.80
2023-02-07T10:31:12.777Z,31.65
2023-02-07T10:33:40.786Z,36.38
2023-02-07T10:36:14.771Z,31.20
2023-02-07T10:38:54.361Z,24.27
2023-02-07T10:41:33.421Z,31.73
2023-02-07T10:43:59.935Z,24.65
2023-02-07T10:46:27.339Z,21.58
2023-02-07T10:48:53.832Z,23.58
2023-02-07T10:51:20.310Z,25.08
2023-02-07T10:53:55.549Z,25.25
2023-02-07T10:56:22.613Z,29.02
2023-02-07T10:58:49.022Z,25.63
2023-02-07T11:01:20.608Z,31.08
2023-02-07T11:03:47.628Z,21.23
2023-02-07T11:06:15.471Z,29.63
2023-02-07T11:08:42.034Z,27.10
2023-02-07T11:11:25.139Z,24.25
2023-02-07T11:13:53.368Z,30.20
2023-02-07T11:16:20.873Z,28.40
2023-02-07T11:18:53.720Z,35.25
2023-02-07T11:21:40.072Z,23.17
2023-02-07T11:24:08.644Z,26.70
2023-02-07T11:26:39.291Z,29.67
2023-02-07T11:29:08.148Z,24.48
2023-02-07T11:31:36.287Z,26.50
2023-02-07T11:34:22.976Z,29.60
2023-02-07T11:36:49.370Z,25.67
2023-02-07T11:39:18.712Z,42.40
2023-02-07T11:41:53.291Z,30.02
2023-02-07T11:44:19.683Z,30.80
2023-02-07T11:46:47.782Z,36.55
2023-02-07T11:49:20.260Z,24.25
2023-02-07T11:51:49.990Z,28.27
2023-02-07T11:54:18.596Z,35.38
2023-02-07T11:56:48.837Z,33.65
2023-02-07T11:59:17.193Z,28.95
2023-02-07T12:01:48.246Z,36.78
2023-02-07T12:04:20.434Z,26.20
2023-02-07T12:06:55.681Z,37.10
2023-02-07T12:09:27.228Z,30.38
2023-02-07T12:11:55.862Z,36.22
2023-02-07T12:14:28.737Z,36.80
2023-02-07T12:16:58.699Z,31.33
2023-02-07T12:19:30.849Z,37.55
2023-02-07T12:22:03.659Z,24.40
2023-02-07T12:24:36.172Z,33.38
2023-02-07T12:27:22.933Z,35.15
2023-02-07T12:29:58.412Z,32.33
2023-02-07T12:32:40.166Z,37.85
2023-02-07T12:35:24.573Z,38.03
2023-02-07T12:37:55.015Z,32.65
2023-02-07T12:40:21.394Z,34.08
2023-02-07T12:43:00.418Z,46.63
2023-02-07T12:45:39.744Z,29.55
2023-02-07T12:48:15.996Z,38.63
2023-02-07T12:51:00.748Z,35.65
2023-02-07T12:53:27.164Z,41.53
2023-02-07T12:56:05.585Z,24.10
2023-02-07T12:58:38.053Z,25.98
2023-02-07T13:01:12.014Z,28.95
2023-02-07T13:03:57.000Z,21.52
2023-02-07T13:06:23.333Z,33.50
2023-02-07T13:09:07.858Z,27.17
2023-02-07T13:11:34.201Z,37.15
2023-02-07T13:14:00.532Z,28.42
2023-02-07T13:16:26.922Z,27.50
2023-02-07T13:18:57.245Z,30.15
2023-02-07T13:21:34.286Z,34.03
2023-02-07T13:24:02.630Z,31.13
2023-02-07T13:26:29.186Z,26.02
2023-02-07T13:28:59.936Z,32.85
2023-02-07T13:31:45.067Z,27.30
2023-02-07T13:34:17.177Z,39.63
2023-02-07T13:36:45.276Z,32.50
2023-02-07T13:39:19.003Z,30.35
2023-02-07T13:41:46.604Z,31.95
2023-02-07T13:44:20.424Z,40.25
2023-02-07T13:47:00.161Z,27.00
2023-02-07T13:49:29.810Z,31.38
2023-02-07T13:51:57.767Z,25.90
2023-02-07T13:54:37.639Z,27.00
2023-02-07T13:57:22.654Z,26.63
2023-02-07T14:00:11.822Z,28.95
2023-02-07T14:02:44.650Z,30.10
2023-02-07T14:05:16.673Z,31.80
2023-02-07T14:07:49.610Z,29.23
2023-02-07T14:10:34.724Z,32.15
2023-02-07T14:13:02.553Z,19.65
2023-02-07T14:15:30.564Z,31.95
2023-02-07T14:17:57.007Z,26.35
2023-02-07T14:20:38.444Z,25.25
2023-02-07T14:23:05.076Z,24.02
2023-02-07T14:25:31.565Z,22.55
2023-02-07T14:28:16.495Z,27.90
2023-02-07T14:30:49.158Z,18.42
2023-02-07T14:33:17.582Z,20.58
2023-02-07T14:36:05.727Z,28.73
2023-02-07T14:38:33.551Z,30.55
2023-02-07T14:41:10.619Z,25.05
2023-02-07T14:44:09.504Z,28.52
2023-02-07T14:46:46.841Z,21.90
2023-02-07T14:49:16.370Z,23.02
2023-02-07T14:51:47.673Z,20.55
2023-02-07T14:54:16.611Z,25.35
2023-02-07T14:56:43.090Z,29.80
2023-02-07T14:59:11.586Z,31.63
2023-02-07T15:01:38.026Z,24.48
2023-02-07T15:04:05.636Z,32.70
2023-02-07T15:06:40.349Z,29.75
2023-02-07T15:09:07.256Z,33.60
2023-02-07T15:11:35.872Z,27.95
2023-02-07T15:14:03.259Z,23.95
2023-02-07T15:16:30.950Z,23.15
2023-02-07T15:18:57.345Z,30.23
2023-02-07T15:21:30.300Z,23.40
2023-02-07T15:24:08.696Z,24.65
2023-02-07T15:26:36.024Z,26.05
2023-02-07T15:29:04.111Z,29.65
2023-02-07T15:31:30.972Z,27.10
2023-02-07T15:33:59.485Z,18.73
2023-02-07T15:36:29.033Z,31.85
2023-02-07T15:38:56.031Z,33.58
2023-02-07T15:41:22.490Z,24.13
2023-02-07T15:44:02.182Z,30.20
2023-02-07T15:46:47.379Z,29.60
2023-02-07T15:49:32.297Z,29.33
2023-02-07T15:52:22.369Z,23.55
2023-02-07T15:54:50.550Z,24.53
2023-02-07T15:57:37.201Z,35.95
2023-02-07T16:00:06.635Z,24.88
2023-02-07T16:02:35.693Z,20.92
2023-02-07T16:05:09.447Z,23.35
2023-02-07T16:07:36.358Z,32.85
2023-02-07T16:10:21.542Z,34.67
2023-02-07T16:12:55.367Z,30.70
2023-02-07T16:15:24.661Z,27.52
2023-02-07T16:17:54.238Z,30.77
2023-02-07T16:20:20.774Z,28.10
2023-02-07T16:22:47.362Z,21.45
2023-02-07T16:25:16.672Z,26.05
2023-02-07T16:27:44.461Z,26.90
2023-02-07T16:30:13.894Z,34.42
2023-02-07T16:32:40.453Z,38.05
2023-02-07T16:35:20.770Z,25.23
2023-02-07T16:37:47.201Z,31.67
2023-02-07T16:40:14.185Z,27.23
2023-02-07T16:42:41.732Z,33.55
2023-02-07T16:45:15.198Z,30.02
2023-02-07T16:47:41.586Z,34.50
2023-02-07T16:50:13.114Z,29.92
2023-02-07T16:52:39.521Z,37.92
2023-02-07T16:55:08.153Z,39.78
2023-02-07T16:57:35.698Z,47.10
2023-02-07T17:00:02.781Z,33.17
2023-02-07T17:02:29.222Z,29.50
2023-02-07T17:04:55.864Z,30.85
2023-02-07T17:07:22.257Z,23.27
2023-02-07T17:09:50.370Z,31.02
2023-02-07T17:12:18.745Z,33.50
2023-02-07T17:14:45.151Z,28.08
2023-02-07T17:17:12.522Z,32.20
2023-02-07T17:19:38.916Z,28.00
2023-02-07T17:22:05.444Z,28.33
2023-02-07T17:24:32.087Z,30.75
2023-02-07T17:26:58.586Z,29.50
2023-02-07T17:29:25.160Z,28.00
2023-02-07T17:31:51.618Z,25.50
2023-02-07T17:34:18.081Z,24.35
2023-02-07T17:36:46.958Z,36.88
2023-02-07T17:39:14.359Z,32.33
2023-02-07T17:41:40.834Z,27.42
2023-02-07T17:44:07.532Z,31.85
2023-02-07T17:46:33.952Z,26.20
2023-02-07T17:49:01.004Z,34.35
2023-02-07T17:51:28.334Z,34.70
2023-02-07T17:53:55.966Z,35.00
2023-02-07T17:56:29.543Z,31.83
2023-02-07T17:58:59.783Z,30.33
2023-02-07T18:01:26.269Z,28.45
2023-02-07T18:03:55.853Z,29.73
2023-02-07T18:06:23.995Z,39.65
2023-02-07T18:08:50.942Z,31.58
2023-02-07T18:11:17.894Z,29.88
2023-02-07T18:13:45.663Z,29.08
2023-02-07T18:16:16.457Z,29.73
2023-02-07T18:21:09.306Z,31.15
2023-02-07T18:23:35.960Z,25.88
2023-02-07T18:26:04.617Z,39.15
2023-02-07T18:28:31.467Z,34.55
2023-02-07T18:30:57.919Z,35.05
2023-02-07T18:33:24.392Z,29.92
2023-02-07T18:35:55.654Z,35.58
2023-02-07T18:38:22.066Z,41.70
2023-02-07T18:40:48.541Z,25.45
2023-02-07T18:43:15.018Z,23.88
2023-02-07T18:45:42.239Z,28.60
2023-02-07T18:48:08.976Z,36.75
2023-02-07T18:50:35.454Z,26.65
2023-02-07T18:53:01.917Z,34.60
2023-02-07T18:55:28.288Z,37.63
2023-02-07T18:57:55.711Z,26.40
2023-02-07T19:00:22.112Z,31.23
2023-02-07T19:02:48.625Z,23.33
2023-02-07T19:05:15.132Z,26.33
2023-02-07T19:07:42.723Z,27.83
2023-02-07T19:10:12.190Z,33.05
2023-02-07T19:12:41.370Z,32.53
2023-02-07T19:15:08.156Z,30.10
2023-02-07T19:17:35.373Z,32.92
2023-02-07T19:20:01.812Z,35.50
2023-02-07T19:22:35.266Z,27.77
2023-02-07T19:25:02.801Z,29.38
2023-02-07T19:27:29.318Z,23.00
2023-02-07T19:29:55.690Z,34.10
2023-02-07T19:32:22.068Z,27.70
2023-02-07T19:34:49.791Z,34.80
2023-02-07T19:37:16.494Z,30.90
2023-02-07T19:39:44.803Z,28.27
2023-02-07T19:42:11.217Z,23.42
2023-02-07T19:44:37.603Z,35.72
2023-02-07T19:47:05.102Z,30.27
2023-02-07T19:49:31.508Z,30.35
2023-02-07T19:51:57.898Z,24.42
2023-02-07T19:54:24.315Z,33.20
2023-02-07T19:56:50.830Z,41.65
2023-02-07T19:59:18.744Z,23.73
2023-02-07T20:01:45.327Z,31.33
2023-02-07T20:04:15.032Z,37.72
2023-02-07T20:06:41.465Z,29.08
2023-02-07T20:09:07.928Z,32.00
2023-02-07T20:11:34.715Z,29.95
2023-02-07T20:14:05.876Z,23.05
2023-02-07T20:16:34.058Z,29.83
2023-02-07T20:19:01.175Z,30.02
2023-02-07T20:21:29.013Z,29.45
2023-02-07T20:23:56.220Z,34.60
2023-02-07T20:26:26.950Z,36.42
2023-02-07T20:28:53.931Z,28.95
2023-02-07T20:31:25.106Z,33.17
2023-02-07T20:33:52.172Z,32.72
2023-02-07T20:36:18.954Z,26.13
2023-02-07T20:38:46.010Z,35.97
2023-02-07T20:41:28.833Z,36.85
2023-02-07T20:43:59.621Z,25.60
2023-02-07T20:46:26.918Z,24.55
2023-02-07T20:49:00.943Z,26.23
2023-02-07T20:51:30.540Z,20.13
2023-02-07T20:53:58.244Z,37.70
2023-02-07T20:56:24.990Z,22.40
2023-02-07T20:58:51.664Z,22.63
2023-02-07T21:01:19.613Z,23.05
2023-02-07T21:03:46.939Z,25.92
2023-02-07T21:06:13.356Z,32.80
2023-02-07T21:08:40.015Z,27.27
2023-02-07T21:11:07.923Z,33.80
2023-02-07T21:13:35.123Z,23.77
2023-02-07T21:16:03.511Z,24.73
2023-02-07T21:18:30.290Z,36.15
2023-02-07T21:20:57.108Z,25.20
2023-02-07T21:23:23.591Z,23.70
2023-02-07T21:25:53.191Z,31.10
2023-02-07T21:28:19.662Z,26.65
2023-02-07T21:30:46.188Z,27.83
2023-02-07T21:33:12.620Z,24.00
2023-02-07T21:35:39.006Z,30.35
2023-02-07T21:38:07.610Z,27.90
2023-02-07T21:40:34.217Z,28.75
2023-02-07T21:43:02.959Z,38.28
2023-02-07T21:45:29.680Z,26.58
2023-02-07T21:47:56.508Z,31.60
2023-02-07T21:50:22.933Z,28.50
2023-02-07T21:52:49.353Z,28.63
2023-02-07T21:55:15.792Z,31.52
2023-02-07T21:57:42.186Z,16.67
2023-02-07T22:00:14.418Z,34.30
2023-02-07T22:02:40.860Z,34.38
2023-02-07T22:05:07.511Z,19.98
2023-02-07T22:07:33.924Z,31.02
2023-02-07T22:10:01.731Z,38.63
2023-02-07T22:12:28.101Z,30.08
2023-02-07T22:14:54.482Z,21.85
2023-02-07T22:17:20.889Z,23.08
2023-02-07T22:19:49.522Z,28.60
2023-02-07T22:22:15.984Z,22.30
2023-02-07T22:24:42.400Z,25.17
2023-02-07T22:27:08.865Z,25.33
2023-02-07T22:29:35.288Z,31.17
2023-02-07T22:32:01.705Z,30.60
2023-02-07T22:34:30.601Z,21.48
2023-02-07T22:36:57.018Z,26.40
2023-02-07T22:39:23.464Z,29.17
2023-02-07T22:41:49.850Z,30.05
2023-02-07T22:44:18.586Z,31.88
2023-02-07T22:46:45.059Z,26.25
2023-02-07T22:49:11.576Z,27.13
2023-02-07T22:51:38.160Z,23.90
2023-02-07T22:54:06.330Z,30.17
2023-02-07T22:56:33.964Z,24.90
2023-02-07T22:59:00.484Z,35.58
2023-02-07T23:01:28.728Z,23.98
2023-02-07T23:03:55.831Z,28.50
2023-02-07T23:06:23.893Z,29.13
2023-02-07T23:08:53.485Z,34.92
2023-02-07T23:11:23.425Z,24.50
2023-02-07T23:13:53.180Z,23.63
2023-02-07T23:16:21.202Z,23.70
2023-02-07T23:18:48.237Z,16.50
2023-02-07T23:21:15.870Z,36.40
2023-02-07T23:23:42.578Z,29.35
2023-02-07T23:26:14.054Z,30.67
2023-02-07T23:28:40.877Z,22.48
2023-02-07T23:31:08.526Z,22.25
2023-02-07T23:33:35.116Z,28.50
2023-02-07T23:36:01.775Z,27.77
2023-02-07T23:38:28.185Z,18.70
2023-02-07T23:40:54.596Z,31.75
2023-02-07T23:43:24.848Z,27.42
2023-02-07T23:45:51.460Z,19.50
2023-02-07T23:48:17.938Z,30.75
2023-02-07T23:50:44.358Z,33.83
2023-02-07T23:53:10.777Z,26.35
2023-02-07T23:55:40.885Z,30.42
2023-02-07T23:58:07.266Z,37.58
